Time;durP1;ratioP1;P1;durP2;ratioP2;P2;SDS_P1;SDS_P2;PMS_P1;PMS_P2;Temp;Humidity;BMP_temperature;BMP_pressure;BME280_temperature;BME280_humidity;BME280_pressure;Samples;Min_cycle;Max_cycle;Signal;HPM_P1;HPM_P2
2023/08/02 00:00:08;;;;;;;6.40;2.60;;;16.90;1.00;;;;;;5051579;28;20909;-79
2023/08/02 00:02:44;;;;;;;10.10;2.50;;;16.90;1.00;;;;;;5051798;28;20421;-79
2023/08/02 00:05:32;;;;;;;12.80;3.33;;;16.90;1.00;;;;;;5053902;28;20426;-79
2023/08/02 00:08:08;;;;;;;12.90;3.00;;;16.90;1.00;;;;;;5047725;28;20456;-79
2023/08/02 00:11:08;;;;;;;4.63;3.23;;;16.90;1.00;;;;;;5050770;28;20417;-83
2023/08/02 00:14:08;;;;;;;6.80;2.93;;;17.00;1.00;;;;;;5034537;28;20503;-83
2023/08/02 00:17:02;;;;;;;6.23;3.30;;;17.00;1.00;;;;;;5053808;28;20385;-83
2023/08/02 00:20:08;;;;;;;5.20;2.40;;;17.00;1.00;;;;;;5047935;28;20991;-83
2023/08/02 00:22:56;;;;;;;7.07;3.07;;;17.00;1.00;;;;;;5053691;28;20420;-83
2023/08/02 00:25:39;;;;;;;13.23;2.80;;;17.00;1.00;;;;;;5054162;28;20463;-83
2023/08/02 00:28:04;;;;;;;5.63;2.70;;;17.00;1.00;;;;;;5052489;28;20784;-83
2023/08/02 00:30:44;;;;;;;3.30;2.80;;;17.10;1.00;;;;;;5051414;28;20444;-82
2023/08/02 00:40:38;;;;;;;8.10;2.80;;;17.00;1.00;;;;;;5053665;28;20427;-83
2023/08/02 00:43:08;;;;;;;5.90;2.37;;;16.90;1.00;;;;;;5050037;28;20422;-83
2023/08/02 00:46:08;;;;;;;9.87;2.77;;;16.90;1.00;;;;;;5048769;28;20438;-83
2023/08/02 00:49:09;;;;;;;7.10;2.47;;;16.90;1.00;;;;;;5044680;28;20384;-83
2023/08/02 00:52:08;;;;;;;8.23;2.80;;;16.90;1.00;;;;;;5051106;28;20913;-83
2023/08/02 00:54:39;;;;;;;4.20;2.50;;;17.00;1.00;;;;;;5052115;28;20444;-80
2023/08/02 00:57:11;;;;;;;11.53;2.87;;;17.00;1.00;;;;;;5053225;28;20456;-79
2023/08/02 01:00:08;;;;;;;8.70;3.13;;;17.00;1.00;;;;;;5053079;28;20405;-79
2023/08/02 01:02:44;;;;;;;4.50;2.43;;;17.10;1.00;;;;;;5052712;28;20431;-79
2023/08/02 01:05:40;;;;;;;15.80;2.60;;;17.10;1.00;;;;;;5048136;28;20428;-79
2023/08/02 01:08:11;;;;;;;9.73;2.70;;;17.10;1.00;;;;;;5043054;28;20444;-79
2023/08/02 01:11:01;;;;;;;6.50;2.63;;;17.10;1.00;;;;;;5054277;28;20425;-79
2023/08/02 01:13:40;;;;;;;5.03;2.37;;;17.10;1.00;;;;;;5056565;28;20480;-79
2023/08/02 01:16:08;;;;;;;7.30;2.40;;;17.20;1.00;;;;;;5047606;28;20485;-80
2023/08/02 01:22:08;;;;;;;5.87;2.80;;;17.20;1.00;;;;;;5054099;28;20921;-79
2023/08/02 01:24:39;;;;;;;8.87;2.60;;;17.20;1.00;;;;;;5052561;28;20419;-83
2023/08/02 01:27:34;;;;;;;4.20;2.27;;;17.20;1.00;;;;;;5054075;28;20410;-83
2023/08/02 01:30:13;;;;;;;3.87;2.63;;;17.20;1.00;;;;;;5056622;28;20497;-84
2023/08/02 01:32:39;;;;;;;9.57;2.40;;;17.20;1.00;;;;;;5064504;28;20415;-83
2023/08/02 01:35:05;;;;;;;6.87;2.70;;;17.10;1.00;;;;;;5051080;28;20409;-83
2023/08/02 01:37:34;;;;;;;4.40;2.37;;;17.00;1.00;;;;;;5048232;28;20521;-83
2023/08/02 01:40:10;;;;;;;7.23;2.70;;;17.00;1.00;;;;;;5058496;28;20807;-79
2023/08/02 01:42:38;;;;;;;9.03;2.27;;;17.10;1.00;;;;;;5056381;28;20940;-79
2023/08/02 01:45:14;;;;;;;4.37;2.67;;;17.10;1.00;;;;;;5054561;28;20844;-79
2023/08/02 01:47:56;;;;;;;4.60;2.37;;;17.20;1.00;;;;;;5056688;28;20750;-79
2023/08/02 01:50:38;;;;;;;8.07;2.30;;;17.20;1.00;;;;;;5050160;28;20428;-79
2023/08/02 01:53:14;;;;;;;7.73;2.47;;;17.20;1.00;;;;;;5048979;28;20419;-79
2023/08/02 01:56:08;;;;;;;3.13;2.03;;;17.20;1.00;;;;;;5036863;28;20402;-83
2023/08/02 01:58:38;;;;;;;9.60;2.57;;;17.20;1.00;;;;;;5055031;28;20456;-83
2023/08/02 02:01:08;;;;;;;5.70;2.37;;;17.20;1.00;;;;;;5056245;28;20440;-83
2023/08/02 02:03:38;;;;;;;5.40;2.40;;;17.10;1.00;;;;;;5055710;28;20434;-83
2023/08/02 02:06:50;;;;;;;4.63;2.13;;;17.20;1.00;;;;;;5049535;28;20423;-82
2023/08/02 02:09:38;;;;;;;2.80;2.57;;;17.20;1.00;;;;;;5049210;28;20471;-83
2023/08/02 02:12:08;;;;;;;4.27;2.30;;;17.20;1.00;;;;;;5068444;28;20403;-83
2023/08/02 02:15:08;;;;;;;4.17;2.50;;;17.30;1.00;;;;;;5068015;28;20425;-83
2023/08/02 02:17:40;;;;;;;6.07;1.90;;;17.20;1.00;;;;;;5049325;28;20518;-82
2023/08/02 02:20:09;;;;;;;4.20;2.40;;;17.30;1.00;;;;;;5052676;28;20491;-83
2023/08/02 02:22:39;;;;;;;4.03;2.07;;;17.40;1.00;;;;;;5050445;28;20511;-83
2023/08/02 02:25:08;;;;;;;4.23;2.37;;;17.40;1.00;;;;;;5055195;28;20463;-79
2023/08/02 02:27:50;;;;;;;5.03;2.33;;;17.30;1.00;;;;;;5055426;28;20469;-79
2023/08/02 02:30:41;;;;;;;6.20;3.00;;;17.30;1.00;;;;;;5055088;28;20493;-79
2023/08/02 02:33:08;;;;;;;5.30;2.43;;;17.20;1.00;;;;;;5047912;28;20484;-79
2023/08/02 02:35:38;;;;;;;5.17;2.47;;;17.20;1.00;;;;;;5042422;28;20417;-79
2023/08/02 02:38:04;;;;;;;6.80;2.37;;;17.20;1.00;;;;;;5055367;28;20488;-79
2023/08/02 02:41:08;;;;;;;3.43;2.17;;;17.20;1.00;;;;;;5055461;28;20967;-80
2023/08/02 02:43:33;;;;;;;6.37;2.50;;;17.20;1.00;;;;;;5047794;28;20193;-79
2023/08/02 02:46:26;;;;;;;5.00;2.33;;;17.30;1.00;;;;;;5052703;28;20408;-79
2023/08/02 02:49:26;;;;;;;4.70;2.20;;;17.30;1.00;;;;;;5053666;28;20187;-79
2023/08/02 02:51:56;;;;;;;4.53;2.10;;;17.40;1.00;;;;;;5051733;28;20430;-79
2023/08/02 02:57:56;;;;;;;5.50;2.60;;;17.30;1.00;;;;;;5054682;28;20468;-83
2023/08/02 03:00:57;;;;;;;3.43;2.07;;;17.20;1.00;;;;;;5054302;28;20406;-83
2023/08/02 03:03:56;;;;;;;7.60;2.20;;;17.20;1.00;;;;;;5052232;28;20443;-84
2023/08/02 03:06:54;;;;;;;4.17;2.30;;;17.20;1.00;;;;;;5042686;28;20399;-83
2023/08/02 03:09:26;;;;;;;3.57;2.33;;;17.20;1.00;;;;;;5040638;28;20897;-82
2023/08/02 03:12:26;;;;;;;6.53;2.50;;;17.20;1.00;;;;;;5051647;28;21041;-83
2023/08/02 03:15:26;;;;;;;8.60;2.27;;;17.20;1.00;;;;;;5054655;28;20431;-83
2023/08/02 03:18:20;;;;;;;3.43;2.07;;;17.20;1.00;;;;;;5056275;28;20495;-83
2023/08/02 03:21:08;;;;;;;6.70;2.33;;;17.20;1.00;;;;;;5059565;28;20408;-83
2023/08/02 03:23:50;;;;;;;4.70;2.37;;;17.20;1.00;;;;;;5045353;28;20941;-88
2023/08/02 03:26:57;;;;;;;4.03;2.33;;;17.30;1.00;;;;;;5054110;28;20417;-88
2023/08/02 03:30:13;;;;;;;4.90;2.40;;;17.20;1.00;;;;;;5036310;28;20574;-88
2023/08/02 03:32:44;;;;;;;6.73;2.50;;;17.20;1.00;;;;;;5045419;28;20485;-88
2023/08/02 03:35:14;;;;;;;5.87;2.17;;;17.20;1.00;;;;;;5051781;28;20432;-88
2023/08/02 03:37:56;;;;;;;7.20;2.03;;;17.20;1.00;;;;;;5054105;28;20937;-89
2023/08/02 03:40:56;;;;;;;6.33;2.30;;;17.20;1.00;;;;;;5045477;28;20920;-87
2023/08/02 03:43:27;;;;;;;6.30;2.20;;;;;;;;;;5051587;28;20412;-85
2023/08/02 03:46:26;;;;;;;2.27;2.07;;;17.20;1.00;;;;;;5046702;28;20425;-84
2023/08/02 03:48:57;;;;;;;3.53;3.13;;;;;;;;;;5039878;28;20959;-86
2023/08/02 03:51:27;;;;;;;5.63;2.17;;;;;;;;;;5048564;28;20459;-85
2023/08/02 03:53:57;;;;;;;4.90;2.30;;;;;;;;;;5042285;28;20453;-85
2023/08/02 03:56:27;;;;;;;3.40;2.60;;;;;;;;;;5047288;28;20416;-86
2023/08/02 03:59:26;;;;;;;4.07;2.33;;;17.20;1.00;;;;;;5044617;28;20456;-85
2023/08/02 04:02:26;;;;;;;6.63;2.30;;;17.20;1.00;;;;;;5049823;28;21041;-85
2023/08/02 04:05:26;;;;;;;4.78;1.75;;;17.30;1.00;;;;;;5039188;28;20576;-85
2023/08/02 04:07:52;;;;;;;5.23;3.10;;;;;;;;;;5049087;28;20209;-85
2023/08/02 04:10:18;;;;;;;7.97;2.23;;;;;;;;;;5041642;28;20425;-85
2023/08/02 04:13:26;;;;;;;5.77;2.53;;;17.30;1.00;;;;;;5038532;28;20853;-85
2023/08/02 04:16:26;;;;;;;6.60;2.50;;;17.30;1.00;;;;;;5043461;28;20511;-85
2023/08/02 04:19:26;;;;;;;3.00;2.17;;;;;;;;;;5053143;28;20769;-85
2023/08/02 04:22:26;;;;;;;4.53;2.30;;;17.40;1.00;;;;;;5051476;28;20436;-85
2023/08/02 04:24:57;;;;;;;5.53;2.47;;;;;;;;;;5047091;28;20519;-85
2023/08/02 04:27:27;;;;;;;4.07;2.47;;;;;;;;;;5054137;28;20775;-85
2023/08/02 04:29:57;;;;;;;5.60;1.90;;;;;;;;;;5040155;28;20921;-85
2023/08/02 04:32:27;;;;;;;3.23;2.10;;;;;;;;;;5034408;28;20484;-85
2023/08/02 04:35:14;;;;;;;3.90;1.90;;;17.50;1.00;;;;;;5048184;28;20391;-85
2023/08/02 04:38:26;;;;;;;5.80;2.27;;;17.60;1.00;;;;;;5062566;28;20456;-85
2023/08/02 04:40:57;;;;;;;4.00;1.87;;;17.70;1.00;;;;;;5040985;28;20446;-86
2023/08/02 04:43:26;;;;;;;6.57;2.30;;;17.70;1.00;;;;;;5048033;28;20547;-90
2023/08/02 04:46:08;;;;;;;5.43;2.50;;;17.70;1.00;;;;;;5044960;28;20511;-89
2023/08/02 04:49:26;;;;;;;4.43;2.13;;;17.80;1.00;;;;;;5051869;28;20402;-89
2023/08/02 04:52:14;;;;;;;4.83;2.40;;;17.80;1.00;;;;;;5041617;28;20492;-88
2023/08/02 04:55:26;;;;;;;5.00;2.33;;;17.80;1.00;;;;;;5041345;28;20444;-90
2023/08/02 04:57:57;;;;;;;4.93;2.17;;;;;;;;;;5049000;28;20435;-85
2023/08/02 05:00:28;;;;;;;5.53;2.10;;;17.80;1.00;;;;;;5051078;28;20429;-85
2023/08/02 05:02:54;;;;;;;3.00;2.20;;;;;;;;;;5047853;28;20430;-85
2023/08/02 05:05:59;;;;;;;5.07;2.07;;;17.90;1.00;;;;;;5044052;28;20942;-84
2023/08/02 05:08:56;;;;;;;5.53;1.90;;;18.00;1.00;;;;;;5044720;28;20452;-85
2023/08/02 05:11:26;;;;;;;6.77;2.43;;;18.00;1.00;;;;;;5039824;28;20468;-87
2023/08/02 05:13:56;;;;;;;7.20;2.03;;;17.90;1.00;;;;;;5045774;28;20956;-91
2023/08/02 05:19:57;;;;;;;3.40;1.90;;;18.00;1.00;;;;;;5043651;28;20437;-90
2023/08/02 05:22:56;;;;;;;5.27;2.00;;;18.10;1.00;;;;;;5052777;28;20417;-90
2023/08/02 05:25:30;;;;;;;3.70;1.90;;;18.10;1.00;;;;;;5052844;28;20412;-90
2023/08/02 05:27:57;;;;;;;4.47;2.20;;;;;;;;;;5052479;28;20447;-84
2023/08/02 05:30:27;;;;;;;5.13;2.47;;;18.10;1.00;;;;;;5053173;28;20397;-85
2023/08/02 05:32:57;;;;;;;3.93;2.00;;;18.10;1.00;;;;;;5052658;28;20420;-85
2023/08/02 05:35:59;;;;;;;3.97;2.00;;;18.10;1.00;;;;;;5043195;28;20436;-81
2023/08/02 05:38:27;;;;;;;5.40;2.37;;;;;;;;;;5038322;28;20569;-86
2023/08/02 05:41:01;;;;;;;9.10;2.20;;;18.00;1.00;;;;;;5044459;28;20942;-85
2023/08/02 05:43:27;;;;;;;4.03;2.00;;;18.00;1.00;;;;;;5051046;28;20428;-80
2023/08/02 05:45:57;;;;;;;3.53;2.20;;;18.00;1.00;;;;;;5048728;28;20495;-82
2023/08/02 05:48:28;;;;;;;3.37;2.37;;;18.00;1.00;;;;;;5047389;28;20928;-82
2023/08/02 05:50:55;;;;;;;3.77;2.20;;;18.00;1.00;;;;;;5049798;28;20437;-86
2023/08/02 05:53:56;;;;;;;3.37;2.30;;;18.00;1.00;;;;;;5036735;28;20471;-87
2023/08/02 05:56:39;;;;;;;14.73;2.20;;;;;;;;;;5051220;28;20626;-86
2023/08/02 05:59:28;;;;;;;4.60;2.53;;;;;;;;;;5055621;28;20445;-86
2023/08/02 06:01:57;;;;;;;2.37;2.07;;;;;;;;;;5052777;28;20439;-86
2023/08/02 06:04:56;;;;;;;5.20;2.53;;;;;;;;;;5049049;28;20928;-87
2023/08/02 06:07:22;;;;;;;3.53;1.93;;;;;;;;;;5035708;28;20408;-86
2023/08/02 06:09:57;;;;;;;6.00;2.73;;;;;;;;;;5047739;28;20444;-86
2023/08/02 06:12:27;;;;;;;5.97;2.50;;;;;;;;;;5056841;28;20772;-87
2023/08/02 06:14:53;;;;;;;5.83;2.20;;;;;;;;;;5055638;28;20407;-86
2023/08/02 06:17:27;;;;;;;3.23;2.13;;;;;;;;;;5055633;28;20814;-87
2023/08/02 06:19:57;;;;;;;10.00;3.63;;;;;;;;;;5055055;28;20432;-85
2023/08/02 06:22:27;;;;;;;3.80;2.20;;;;;;;;;;5047117;28;20917;-86
2023/08/02 06:24:57;;;;;;;3.87;2.23;;;;;;;;;;5048627;28;20399;-86
2023/08/02 06:27:27;;;;;;;6.73;2.53;;;;;;;;;;5046385;28;20789;-86
2023/08/02 06:29:57;;;;;;;4.47;2.67;;;;;;;;;;5054865;28;20510;-86
2023/08/02 06:32:27;;;;;;;4.93;2.57;;;;;;;;;;5054238;28;20928;-86
2023/08/02 06:34:57;;;;;;;4.20;2.60;;;;;;;;;;5037730;28;20480;-86
2023/08/02 06:37:27;;;;;;;6.10;2.60;;;;;;;;;;5046367;28;21006;-86
2023/08/02 06:43:32;;;;;;;3.50;2.53;;;17.80;1.00;;;;;;5042652;28;20395;-86
2023/08/02 06:49:44;;;;;;;4.30;2.60;;;17.80;1.00;;;;;;5052458;28;20986;-87
2023/08/02 06:55:32;;;;;;;6.63;2.50;;;17.70;1.00;;;;;;5055753;28;20765;-86
2023/08/02 06:58:03;;;;;;;3.60;2.90;;;17.70;1.00;;;;;;5056190;28;20444;-87
2023/08/02 07:03:50;;;;;;;9.37;3.27;;;17.40;1.00;;;;;;5051184;28;20426;-85
2023/08/02 07:06:53;;;;;;;7.30;2.87;;;17.30;1.00;;;;;;5043092;28;20420;-86
2023/08/02 07:09:29;;;;;;;8.13;2.83;;;17.20;1.00;;;;;;5042762;28;20232;-85
2023/08/02 07:12:38;;;;;;;4.40;3.17;;;17.40;1.00;;;;;;5041825;28;20969;-85
2023/08/02 07:15:44;;;;;;;7.73;2.70;;;17.50;1.00;;;;;;5045807;28;20439;-85
2023/08/02 07:18:44;;;;;;;2.63;2.33;;;17.70;1.00;;;;;;5051947;28;20610;-85
2023/08/02 07:21:50;;;;;;;3.37;2.47;;;17.60;1.00;;;;;;5046368;28;20427;-85
2023/08/02 07:40:29;;;;;;;2.50;2.30;;;;;;;;;;5055285;28;20380;-88
2023/08/02 07:42:55;;;;;;;5.63;1.87;;;;;;;;;;5054489;28;20425;-87
2023/08/02 07:48:24;;;;;;;4.40;2.30;;;;;;;;;;5054871;28;20486;-87
2023/08/02 07:54:12;;;;;;;4.33;2.27;;;;;;;;;;5039528;28;20413;-87
2023/08/02 08:00:44;;;;;;;6.10;2.17;;;18.20;1.00;;;;;;5050518;28;20420;-88
2023/08/02 08:06:54;;;;;;;4.20;1.90;;;18.20;1.00;;;;;;5047899;28;20451;-87
2023/08/02 08:12:42;;;;;;;2.53;2.27;;;;;;;;;;5043919;28;20589;-87
2023/08/02 08:15:08;;;;;;;2.73;2.30;;;;;;;;;;5035327;28;20410;-88
2023/08/02 08:17:45;;;;;;;5.57;2.33;;;;;;;;;;5044415;28;20469;-88
2023/08/02 08:20:27;;;;;;;2.73;2.27;;;;;;;;;;5050004;28;20417;-88
2023/08/02 08:23:26;;;;;;;2.93;2.43;;;18.60;1.00;;;;;;5053410;28;20914;-88
2023/08/02 08:25:52;;;;;;;3.83;2.00;;;;;;;;;;5052155;28;20773;-88
2023/08/02 08:28:27;;;;;;;2.73;2.07;;;;;;;;;;5053753;28;20469;-87
2023/08/02 08:31:04;;;;;;;1.97;1.87;;;;;;;;;;5033451;28;20407;-88
2023/08/02 08:33:39;;;;;;;2.20;2.03;;;;;;;;;;5053738;28;20428;-89
2023/08/02 08:36:56;;;;;;;3.53;2.33;;;18.50;1.00;;;;;;5052081;28;20425;-87
2023/08/02 08:39:27;;;;;;;3.40;2.60;;;;;;;;;;5033192;28;20426;-87
2023/08/02 08:41:53;;;;;;;1.90;1.80;;;;;;;;;;5033029;28;20406;-87
2023/08/02 08:44:27;;;;;;;2.27;2.17;;;;;;;;;;5038229;28;20421;-87
2023/08/02 08:46:59;;;;;;;2.33;2.13;;;;;;;;;;5050522;28;20425;-87
2023/08/02 08:49:27;;;;;;;8.13;2.57;;;;;;;;;;5052940;28;20420;-87
2023/08/02 08:51:58;;;;;;;3.00;2.10;;;;;;;;;;5053434;28;20496;-87
2023/08/02 08:54:28;;;;;;;7.40;2.67;;;18.80;1.00;;;;;;5050635;28;20467;-87
2023/08/02 09:00:27;;;;;;;2.60;2.20;;;18.80;1.00;;;;;;5041387;28;20405;-81
2023/08/02 09:02:59;;;;;;;2.70;2.50;;;18.90;1.00;;;;;;5053202;28;20922;-81
2023/08/02 09:05:30;;;;;;;2.17;1.97;;;18.90;1.00;;;;;;5051617;28;20429;-81
2023/08/02 09:07:59;;;;;;;2.40;2.20;;;18.80;1.00;;;;;;5043856;28;20464;-81
2023/08/02 09:10:27;;;;;;;2.50;2.30;;;19.00;1.00;;;;;;5052767;28;20395;-81
2023/08/02 09:12:56;;;;;;;2.17;2.07;;;19.10;1.00;;;;;;5053248;28;20413;-82
2023/08/02 09:15:27;;;;;;;2.17;1.97;;;19.00;1.00;;;;;;5053326;28;20398;-81
2023/08/02 09:17:57;;;;;;;2.33;2.20;;;19.10;1.00;;;;;;5052697;28;20519;-81
2023/08/02 09:20:27;;;;;;;1.67;1.57;;;19.00;1.00;;;;;;5052006;28;20430;-81
2023/08/02 09:22:57;;;;;;;3.40;1.70;;;19.00;1.00;;;;;;5053184;28;20432;-81
2023/08/02 09:25:28;;;;;;;2.00;1.87;;;18.70;1.00;;;;;;5053062;28;20391;-81
2023/08/02 09:28:00;;;;;;;2.20;1.80;;;18.70;1.00;;;;;;5053142;28;20408;-81
2023/08/02 09:30:28;;;;;;;1.73;1.63;;;18.60;1.00;;;;;;5053331;28;20421;-81
2023/08/02 09:33:14;;;;;;;3.80;1.87;;;18.50;1.00;;;;;;5056315;28;20458;-81
2023/08/02 09:36:20;;;;;;;2.63;1.70;;;18.50;1.00;;;;;;5042866;28;20432;-81
2023/08/02 09:39:10;;;;;;;1.70;1.60;;;18.40;1.00;;;;;;5044441;28;20457;-81
2023/08/02 09:41:39;;;;;;;1.60;1.43;;;18.60;1.00;;;;;;5056733;28;20463;-81
2023/08/02 09:44:39;;;;;;;2.50;1.83;;;18.50;1.00;;;;;;5064357;28;20895;-81
2023/08/02 09:50:27;;;;;;;1.37;1.27;;;18.70;1.00;;;;;;5053586;28;20416;-81
2023/08/02 09:56:14;;;;;;;1.87;1.40;;;18.70;1.00;;;;;;5040823;28;20405;-82
2023/08/02 09:58:45;;;;;;;1.83;1.70;;;18.70;1.00;;;;;;5056445;28;20456;-81
2023/08/02 10:04:34;;;;;;;4.40;1.37;;;19.00;1.00;;;;;;5056006;28;20405;-81
2023/08/02 10:07:08;;;;;;;2.80;1.80;;;19.00;1.00;;;;;;5055917;28;20422;-82
2023/08/02 10:13:01;;;;;;;1.50;1.40;;;18.90;1.00;;;;;;5043722;28;20464;-82
2023/08/02 10:15:33;;;;;;;3.20;1.73;;;19.00;1.00;;;;;;5036650;28;20921;-81
2023/08/02 10:18:04;;;;;;;3.93;2.07;;;19.10;1.00;;;;;;5043743;28;20457;-79
2023/08/02 10:23:51;;;;;;;2.30;1.50;;;19.00;1.00;;;;;;5054264;28;21020;-81
2023/08/02 10:26:18;;;;;;;1.97;1.87;;;19.00;1.00;;;;;;5051343;28;20512;-81
2023/08/02 10:28:44;;;;;;;2.10;1.90;;;19.00;1.00;;;;;;5046935;28;20195;-83
2023/08/02 10:31:27;;;;;;;2.07;1.87;;;19.00;1.00;;;;;;5048744;28;20445;-83
2023/08/02 10:33:57;;;;;;;1.73;1.40;;;19.10;1.00;;;;;;5054786;28;20411;-84
2023/08/02 10:36:55;;;;;;;1.60;1.50;;;19.20;1.00;;;;;;5040531;28;20501;-84
2023/08/02 10:39:47;;;;;;;2.90;1.60;;;19.40;1.00;;;;;;5034400;28;20423;-83
2023/08/02 10:42:14;;;;;;;1.70;1.60;;;;;;;;;;4988347;28;20448;-87
2023/08/02 10:44:56;;;;;;;4.00;1.60;;;19.40;1.00;;;;;;4978259;28;20459;-89
2023/08/02 10:47:34;;;;;;;1.73;1.60;;;19.50;1.00;;;;;;4995309;28;20844;-86
2023/08/02 10:50:02;;;;;;;1.83;1.73;;;19.60;1.00;;;;;;4978304;28;21029;-85
2023/08/02 10:52:38;;;;;;;2.10;1.40;;;20.10;1.00;;;;;;4996811;28;20494;-84
2023/08/02 10:55:17;;;;;;;1.67;1.57;;;20.40;1.00;;;;;;4977832;28;20411;-84
2023/08/02 10:58:08;;;;;;;2.50;1.63;;;20.30;1.00;;;;;;4994395;28;20520;-86
2023/08/02 11:00:37;;;;;;;2.03;1.73;;;20.30;1.00;;;;;;4993965;28;20410;-87
2023/08/02 11:03:50;;;;;;;3.03;1.90;;;20.30;1.00;;;;;;4971794;28;20506;-86
2023/08/02 11:06:42;;;;;;;1.90;1.63;;;20.40;1.00;;;;;;4991926;28;20430;-83
2023/08/02 11:09:15;;;;;;;1.60;1.50;;;20.00;1.00;;;;;;4977422;28;20638;-90
2023/08/02 11:11:40;;;;;;;2.30;1.80;;;20.10;1.00;;;;;;4980152;28;20440;-87
2023/08/02 11:14:06;;;;;;;1.63;1.53;;;20.10;1.00;;;;;;4978207;28;20430;-86
2023/08/02 11:16:42;;;;;;;1.83;1.30;;;20.20;1.00;;;;;;4991149;28;20194;-85
2023/08/02 11:19:12;;;;;;;1.40;1.30;;;20.40;1.00;;;;;;5013178;28;20252;-82
2023/08/02 11:21:38;;;;;;;2.80;1.30;;;20.20;1.00;;;;;;5047872;28;20437;-82
2023/08/02 11:24:04;;;;;;;2.87;1.63;;;20.30;1.00;;;;;;5044930;28;20873;-83
2023/08/02 11:26:30;;;;;;;3.50;1.63;;;20.30;1.00;;;;;;5039414;28;20180;-86
2023/08/02 11:28:56;;;;;;;1.87;1.57;;;20.20;1.00;;;;;;5042638;28;20189;-88
2023/08/02 11:31:24;;;;;;;11.93;1.60;;;20.30;1.00;;;;;;5052671;28;20558;-86
2023/08/02 11:33:50;;;;;;;1.60;1.50;;;20.20;1.00;;;;;;5034465;28;20443;-85
2023/08/02 11:36:20;;;;;;;1.70;1.60;;;19.90;1.00;;;;;;5050554;28;20790;-87
2023/08/02 11:39:34;;;;;;;2.00;1.43;;;19.70;1.00;;;;;;5054407;28;20457;-86
2023/08/02 11:42:03;;;;;;;2.63;2.00;;;19.70;1.00;;;;;;5053164;28;20785;-86
2023/08/02 11:47:51;;;;;;;2.17;1.70;;;19.80;1.00;;;;;;5049671;28;20468;-86
2023/08/02 11:50:28;;;;;;;1.80;1.70;;;19.70;1.00;;;;;;5033710;28;20895;-86
2023/08/02 11:53:26;;;;;;;3.07;1.50;;;19.80;1.00;;;;;;5047914;28;20179;-86
2023/08/02 12:03:22;;;;;;;1.60;1.47;;;19.70;1.00;;;;;;5053941;28;20497;-84
2023/08/02 12:09:43;;;;;;;1.70;1.60;;;19.60;1.70;;;;;;5036775;28;20438;-84
2023/08/02 12:12:21;;;;;;;1.80;1.70;;;19.90;4.20;;;;;;5051827;28;20434;-84
2023/08/02 12:18:09;;;;;;;2.40;1.50;;;20.10;1.00;;;;;;5054238;28;20443;-84
2023/08/02 12:24:16;;;;;;;5.77;1.70;;;20.30;1.00;;;;;;5050849;28;20291;-83
2023/08/02 12:30:16;;;;;;;1.53;1.43;;;20.10;1.00;;;;;;5040214;28;21021;-84
2023/08/02 12:32:58;;;;;;;1.93;1.57;;;;;;;;;;5047870;28;20434;-83
2023/08/02 12:38:46;;;;;;;1.40;1.30;;;;;;;;;;5044739;28;20823;-83
2023/08/02 12:41:38;;;;;;;2.77;1.57;;;20.80;1.00;;;;;;5042987;28;20416;-82
2023/08/02 12:44:40;;;;;;;1.40;1.30;;;21.30;1.00;;;;;;5039864;28;20425;-83
2023/08/02 12:47:26;;;;;;;1.53;1.43;;;21.20;1.00;;;;;;5052341;28;20420;-83
2023/08/02 12:53:14;;;;;;;1.93;1.73;;;21.60;1.00;;;;;;5048076;28;20524;-84
2023/08/02 13:02:26;;;;;;;1.87;1.30;;;22.30;1.00;;;;;;5049478;28;20405;-83
2023/08/02 13:04:52;;;;;;;1.53;1.40;;;22.50;1.00;;;;;;5045448;28;20897;-84
2023/08/02 13:07:18;;;;;;;1.60;1.50;;;22.70;1.00;;;;;;5054052;28;20458;-82
2023/08/02 13:09:43;;;;;;;1.30;1.20;;;22.80;1.00;;;;;;5055709;28;20179;-83
2023/08/02 13:12:09;;;;;;;3.30;1.63;;;22.70;1.00;;;;;;5050652;28;20559;-84
2023/08/02 13:15:09;;;;;;;3.57;1.50;;;22.70;1.00;;;;;;5052627;28;20184;-83
2023/08/02 13:17:59;;;;;;;1.40;1.30;;;23.30;1.00;;;;;;5038532;28;20551;-84
2023/08/02 13:20:36;;;;;;;4.20;1.53;;;23.50;1.00;;;;;;5044102;28;20428;-83
2023/08/02 13:23:33;;;;;;;2.70;1.70;;;24.00;1.00;;;;;;5045776;28;20436;-83
2023/08/02 13:29:20;;;;;;;1.90;1.80;;;23.90;1.00;;;;;;5040807;28;20510;-83
2023/08/02 13:35:44;;;;;;;2.57;1.63;;;23.90;1.00;;;;;;5044420;28;20229;-86
2023/08/02 13:41:33;;;;;;;2.20;1.73;;;23.30;1.00;;;;;;5050830;28;20425;-86
2023/08/02 13:43:59;;;;;;;3.90;2.00;;;23.20;1.00;;;;;;5045108;28;20427;-87
2023/08/02 13:49:47;;;;;;;2.90;2.00;;;22.60;1.00;;;;;;5046119;28;20427;-85
2023/08/02 13:55:51;;;;;;;2.43;2.00;;;22.20;1.00;;;;;;5041371;28;20183;-86
2023/08/02 13:58:38;;;;;;;3.17;2.10;;;22.20;1.00;;;;;;5054594;28;20819;-87
2023/08/02 14:01:15;;;;;;;3.20;2.00;;;21.90;1.00;;;;;;5055501;28;21203;-87
2023/08/02 14:07:07;;;;;;;4.93;1.90;;;22.10;1.00;;;;;;5039596;28;20485;-89
2023/08/02 14:10:08;;;;;;;3.53;2.13;;;21.80;1.00;;;;;;5035685;28;20892;-87
2023/08/02 14:13:14;;;;;;;2.50;2.30;;;21.60;1.00;;;;;;5053558;28;20408;-87
2023/08/02 14:16:20;;;;;;;2.47;2.20;;;21.90;1.00;;;;;;5053166;28;20528;-87
2023/08/02 14:19:26;;;;;;;7.00;2.27;;;22.20;1.00;;;;;;5054669;28;20452;-88
2023/08/02 14:21:52;;;;;;;4.80;2.53;;;22.10;1.00;;;;;;5048354;28;20435;-88
2023/08/02 14:27:40;;;;;;;2.67;2.47;;;21.50;1.00;;;;;;5052599;28;20193;-88
2023/08/02 14:33:27;;;;;;;3.13;2.83;;;21.20;1.00;;;;;;5054512;28;20193;-82
2023/08/02 14:36:09;;;;;;;3.10;2.80;;;;;;;;;;5050407;28;20425;-86
2023/08/02 14:38:45;;;;;;;3.73;2.70;;;21.60;1.00;;;;;;5052462;28;20198;-82
2023/08/02 14:41:11;;;;;;;5.63;2.70;;;21.80;1.00;;;;;;5051820;28;20438;-83
2023/08/02 14:43:56;;;;;;;2.77;2.57;;;21.80;1.00;;;;;;5051721;28;20444;-84
2023/08/02 14:46:50;;;;;;;4.30;3.10;;;21.70;1.00;;;;;;5053987;28;20437;-84
2023/08/02 14:53:08;;;;;;;2.80;2.30;;;21.60;1.00;;;;;;5046409;28;20409;-88
2023/08/02 14:56:02;;;;;;;1.77;1.67;;;21.40;1.00;;;;;;5055215;28;20428;-88
2023/08/02 15:05:44;;;;;;;1.53;1.43;;;20.80;1.00;;;;;;5052208;28;20498;-87
2023/08/02 15:08:27;;;;;;;5.43;1.80;;;20.70;1.00;;;;;;5054568;28;20448;-86
2023/08/02 15:14:15;;;;;;;2.53;1.63;;;;;;;;;;5040453;28;20410;-88
2023/08/02 15:26:46;;;;;;;3.90;1.33;;;19.80;1.00;;;;;;5034764;28;20392;-83
2023/08/02 15:32:34;;;;;;;4.00;1.20;;;;;;;;;;5048356;28;20205;-83
2023/08/02 15:35:50;;;;;;;4.93;1.53;;;18.90;1.00;;;;;;5054871;28;20497;-87
2023/08/02 15:41:38;;;;;;;1.20;1.10;;;18.70;1.00;;;;;;5049314;28;20407;-87
2023/08/02 15:44:04;;;;;;;1.10;1.00;;;18.60;1.00;;;;;;5041255;28;20445;-86
2023/08/02 15:47:08;;;;;;;8.93;1.17;;;18.50;1.00;;;;;;5057388;28;20928;-89
2023/08/02 15:52:57;;;;;;;3.23;1.20;;;18.40;1.00;;;;;;5050073;28;20450;-88
2023/08/02 15:55:45;;;;;;;1.30;1.20;;;18.20;1.00;;;;;;5053109;28;20433;-90
2023/08/02 16:01:34;;;;;;;1.57;1.20;;;18.30;1.00;;;;;;5053325;28;20520;-90
2023/08/02 16:04:38;;;;;;;1.93;1.40;;;18.30;1.00;;;;;;5054096;28;20384;-86
2023/08/02 16:07:04;;;;;;;2.10;1.10;;;18.30;1.00;;;;;;5051732;28;20424;-84
2023/08/02 16:16:13;;;;;;;3.07;1.77;;;18.20;1.00;;;;;;5049685;28;20435;-85
2023/08/02 16:18:57;;;;;;;1.97;1.20;;;18.50;1.00;;;;;;5054034;28;20441;-85
2023/08/02 16:21:39;;;;;;;0.93;0.93;;;18.70;1.00;;;;;;5046603;28;20175;-83
2023/08/02 16:24:26;;;;;;;1.50;1.07;;;19.10;1.00;;;;;;5053910;28;20475;-84
2023/08/02 16:30:14;;;;;;;1.50;1.10;;;22.90;1.00;;;;;;5043567;28;20430;-83
2023/08/02 16:36:02;;;;;;;0.97;0.93;;;;;;;;;;5050237;28;20229;-88
2023/08/02 16:38:33;;;;;;;3.03;1.13;;;24.70;1.00;;;;;;5048699;28;20536;-87
2023/08/02 16:47:42;;;;;;;0.97;0.90;;;26.80;1.00;;;;;;5050256;28;20916;-86
2023/08/02 16:50:26;;;;;;;2.40;1.10;;;28.70;1.00;;;;;;5043721;28;20432;-89
2023/08/02 16:56:14;;;;;;;1.63;1.13;;;29.10;1.00;;;;;;5053881;28;20779;-89
2023/08/02 16:59:20;;;;;;;1.20;0.90;;;29.20;1.00;;;;;;5052953;28;20446;-90
2023/08/02 17:02:02;;;;;;;4.10;0.90;;;30.50;1.00;;;;;;5053428;28;20172;-89
2023/08/02 17:07:50;;;;;;;4.57;1.03;;;31.80;1.00;;;;;;5047147;28;21030;-91
2023/08/02 17:10:16;;;;;;;5.77;0.90;;;33.20;1.00;;;;;;5052478;28;20422;-91
2023/08/02 17:16:05;;;;;;;1.00;0.77;;;;;;;;;;5053732;28;20175;-91
2023/08/02 17:18:50;;;;;;;1.10;0.87;;;36.40;1.00;;;;;;5052895;28;20454;-90
2023/08/02 17:24:38;;;;;;;2.10;0.90;;;33.60;1.00;;;;;;5053278;28;20451;-87
2023/08/02 17:33:47;;;;;;;4.00;0.97;;;30.00;1.00;;;;;;5033525;28;20402;-88
2023/08/02 17:46:20;;;;;;;0.93;0.93;;;28.30;1.00;;;;;;5039213;28;20403;-87
2023/08/02 17:49:08;;;;;;;2.20;1.30;;;27.40;1.00;;;;;;5054176;28;20437;-86
2023/08/02 18:05:03;;;;;;;3.80;1.30;;;23.00;1.00;;;;;;5049252;28;20768;-84
2023/08/02 18:07:28;;;;;;;2.03;1.20;;;22.60;1.00;;;;;;5037309;28;20490;-90
2023/08/02 18:09:54;;;;;;;3.27;1.10;;;22.20;1.00;;;;;;5050873;28;20428;-89
2023/08/02 18:15:41;;;;;;;5.20;1.50;;;21.70;1.00;;;;;;5056634;28;20192;-88
2023/08/02 18:18:39;;;;;;;1.40;1.30;;;21.40;1.00;;;;;;5058341;28;20445;-88
2023/08/02 18:24:39;;;;;;;11.63;1.53;;;20.90;1.00;;;;;;5054207;28;20423;-88
2023/08/02 18:30:27;;;;;;;2.33;1.60;;;20.60;1.00;;;;;;5050622;28;20420;-88
2023/08/02 18:39:36;;;;;;;3.13;1.17;;;20.40;1.00;;;;;;5054035;28;20417;-84
2023/08/02 18:49:03;;;;;;;3.50;1.70;;;20.20;1.00;;;;;;5046974;28;20777;-84
2023/08/02 18:52:03;;;;;;;7.13;1.50;;;20.10;1.00;;;;;;5026601;28;20422;-88